sensor_id;sensor_type;location;lat;lon;timestamp;P1;durP1;ratioP1;P2;durP2;ratioP2
29196;SDS011;62796;42.654;23.316;2024-01-25T00:01:12;34.97;;;20.35;;
29196;SDS011;62796;42.654;23.316;2024-01-25T00:03:37;33.95;;;18.58;;
29196;SDS011;62796;42.654;23.316;2024-01-25T00:06:06;34.20;;;19.65;;
29196;SDS011;62796;42.654;23.316;2024-01-25T00:08:32;36.25;;;18.92;;
29196;SDS011;62796;42.654;23.316;2024-01-25T00:10:59;31.05;;;19.05;;
29196;SDS011;62796;42.654;23.316;2024-01-25T00:13:24;33.90;;;18.67;;
29196;SDS011;62796;42.654;23.316;2024-01-25T00:15:50;38.17;;;21.52;;
29196;SDS011;62796;42.654;23.316;2024-01-25T00:18:15;36.40;;;22.25;;
29196;SDS011;62796;42.654;23.316;2024-01-25T00:20:41;33.95;;;20.40;;
29196;SDS011;62796;42.654;23.316;2024-01-25T00:23:06;41.17;;;20.83;;
29196;SDS011;62796;42.654;23.316;2024-01-25T00:25:32;35.90;;;20.10;;
29196;SDS011;62796;42.654;23.316;2024-01-25T00:27:57;36.83;;;19.92;;
29196;SDS011;62796;42.654;23.316;2024-01-25T00:30:23;36.95;;;19.58;;
29196;SDS011;62796;42.654;23.316;2024-01-25T00:32:48;32.13;;;18.42;;
29196;SDS011;62796;42.654;23.316;2024-01-25T00:35:14;30.30;;;16.60;;
29196;SDS011;62796;42.654;23.316;2024-01-25T00:37:40;31.75;;;16.38;;
29196;SDS011;62796;42.654;23.316;2024-01-25T00:40:06;33.63;;;19.88;;
29196;SDS011;62796;42.654;23.316;2024-01-25T00:42:34;37.30;;;20.20;;
29196;SDS011;62796;42.654;23.316;2024-01-25T00:45:06;48.97;;;26.13;;
29196;SDS011;62796;42.654;23.316;2024-01-25T00:47:32;46.58;;;26.88;;
29196;SDS011;62796;42.654;23.316;2024-01-25T00:49:57;48.63;;;27.30;;
29196;SDS011;62796;42.654;23.316;2024-01-25T00:52:23;50.10;;;26.60;;
29196;SDS011;62796;42.654;23.316;2024-01-25T00:54:49;51.33;;;29.27;;
29196;SDS011;62796;42.654;23.316;2024-01-25T00:57:14;43.20;;;24.58;;
29196;SDS011;62796;42.654;23.316;2024-01-25T00:59:40;43.88;;;25.48;;
29196;SDS011;62796;42.654;23.316;2024-01-25T01:02:06;45.45;;;26.20;;
29196;SDS011;62796;42.654;23.316;2024-01-25T01:04:36;47.03;;;25.30;;
29196;SDS011;62796;42.654;23.316;2024-01-25T01:07:02;46.63;;;24.75;;
29196;SDS011;62796;42.654;23.316;2024-01-25T01:09:28;49.67;;;26.17;;
29196;SDS011;62796;42.654;23.316;2024-01-25T01:11:54;49.25;;;27.00;;
29196;SDS011;62796;42.654;23.316;2024-01-25T01:14:19;55.33;;;30.27;;
29196;SDS011;62796;42.654;23.316;2024-01-25T01:16:45;62.83;;;34.17;;
29196;SDS011;62796;42.654;23.316;2024-01-25T01:19:10;81.07;;;43.22;;
29196;SDS011;62796;42.654;23.316;2024-01-25T01:21:36;90.68;;;46.28;;
29196;SDS011;62796;42.654;23.316;2024-01-25T01:24:01;66.30;;;36.58;;
29196;SDS011;62796;42.654;23.316;2024-01-25T01:26:27;62.28;;;32.70;;
29196;SDS011;62796;42.654;23.316;2024-01-25T01:28:53;51.10;;;26.90;;
29196;SDS011;62796;42.654;23.316;2024-01-25T01:31:18;45.13;;;25.42;;
29196;SDS011;62796;42.654;23.316;2024-01-25T01:33:44;39.67;;;22.92;;
29196;SDS011;62796;42.654;23.316;2024-01-25T01:36:09;40.50;;;23.05;;
29196;SDS011;62796;42.654;23.316;2024-01-25T01:38:34;45.03;;;22.40;;
29196;SDS011;62796;42.654;23.316;2024-01-25T01:41:00;43.03;;;23.02;;
29196;SDS011;62796;42.654;23.316;2024-01-25T01:43:25;41.30;;;22.27;;
29196;SDS011;62796;42.654;23.316;2024-01-25T01:45:50;44.20;;;24.45;;
29196;SDS011;62796;42.654;23.316;2024-01-25T01:48:16;44.55;;;24.25;;
29196;SDS011;62796;42.654;23.316;2024-01-25T01:50:42;43.83;;;26.17;;
29196;SDS011;62796;42.654;23.316;2024-01-25T01:53:09;44.38;;;23.92;;
29196;SDS011;62796;42.654;23.316;2024-01-25T01:55:35;44.38;;;24.83;;
29196;SDS011;62796;42.654;23.316;2024-01-25T01:58:01;46.05;;;25.40;;
29196;SDS011;62796;42.654;23.316;2024-01-25T02:00:28;58.28;;;28.83;;
29196;SDS011;62796;42.654;23.316;2024-01-25T02:02:55;53.80;;;28.63;;
29196;SDS011;62796;42.654;23.316;2024-01-25T02:05:23;52.70;;;29.02;;
29196;SDS011;62796;42.654;23.316;2024-01-25T02:07:48;49.10;;;25.17;;
29196;SDS011;62796;42.654;23.316;2024-01-25T02:10:14;25.27;;;13.60;;
29196;SDS011;62796;42.654;23.316;2024-01-25T02:12:39;16.15;;;9.35;;
29196;SDS011;62796;42.654;23.316;2024-01-25T02:15:05;13.73;;;7.50;;
29196;SDS011;62796;42.654;23.316;2024-01-25T02:17:30;7.65;;;4.70;;
29196;SDS011;62796;42.654;23.316;2024-01-25T02:19:56;3.83;;;2.53;;
29196;SDS011;62796;42.654;23.316;2024-01-25T02:22:21;4.88;;;1.65;;
29196;SDS011;62796;42.654;23.316;2024-01-25T02:24:47;3.30;;;1.52;;
29196;SDS011;62796;42.654;23.316;2024-01-25T02:27:12;3.42;;;1.40;;
29196;SDS011;62796;42.654;23.316;2024-01-25T02:29:38;2.97;;;1.15;;
29196;SDS011;62796;42.654;23.316;2024-01-25T02:32:03;4.03;;;1.75;;
29196;SDS011;62796;42.654;23.316;2024-01-25T02:34:29;1.70;;;1.13;;
29196;SDS011;62796;42.654;23.316;2024-01-25T02:36:54;2.75;;;1.52;;
29196;SDS011;62796;42.654;23.316;2024-01-25T02:39:20;4.75;;;2.47;;
29196;SDS011;62796;42.654;23.316;2024-01-25T02:41:45;3.00;;;1.98;;
29196;SDS011;62796;42.654;23.316;2024-01-25T02:44:11;2.35;;;1.63;;
29196;SDS011;62796;42.654;23.316;2024-01-25T02:46:36;3.47;;;1.92;;
29196;SDS011;62796;42.654;23.316;2024-01-25T02:49:03;4.35;;;1.70;;
29196;SDS011;62796;42.654;23.316;2024-01-25T02:51:28;3.17;;;2.00;;
29196;SDS011;62796;42.654;23.316;2024-01-25T02:53:53;2.72;;;1.55;;
29196;SDS011;62796;42.654;23.316;2024-01-25T02:56:19;3.40;;;1.50;;
29196;SDS011;62796;42.654;23.316;2024-01-25T02:58:44;4.88;;;2.08;;
29196;SDS011;62796;42.654;23.316;2024-01-25T03:01:10;4.00;;;1.52;;
29196;SDS011;62796;42.654;23.316;2024-01-25T03:03:35;2.45;;;1.60;;
29196;SDS011;62796;42.654;23.316;2024-01-25T03:06:01;3.17;;;1.77;;
29196;SDS011;62796;42.654;23.316;2024-01-25T03:08:27;3.13;;;1.90;;
29196;SDS011;62796;42.654;23.316;2024-01-25T03:10:53;3.83;;;1.77;;
29196;SDS011;62796;42.654;23.316;2024-01-25T03:13:18;2.80;;;1.33;;
29196;SDS011;62796;42.654;23.316;2024-01-25T03:15:43;1.70;;;1.40;;
29196;SDS011;62796;42.654;23.316;2024-01-25T03:18:09;1.83;;;1.13;;
29196;SDS011;62796;42.654;23.316;2024-01-25T03:20:35;2.03;;;1.45;;
29196;SDS011;62796;42.654;23.316;2024-01-25T03:23:01;1.85;;;0.60;;
29196;SDS011;62796;42.654;23.316;2024-01-25T03:25:27;1.42;;;0.70;;
29196;SDS011;62796;42.654;23.316;2024-01-25T03:27:53;1.85;;;0.82;;
29196;SDS011;62796;42.654;23.316;2024-01-25T03:30:18;1.95;;;1.15;;
29196;SDS011;62796;42.654;23.316;2024-01-25T03:32:46;1.15;;;0.70;;
29196;SDS011;62796;42.654;23.316;2024-01-25T03:35:12;1.40;;;0.73;;
29196;SDS011;62796;42.654;23.316;2024-01-25T03:37:37;2.03;;;1.00;;
29196;SDS011;62796;42.654;23.316;2024-01-25T03:40:03;2.03;;;0.82;;
29196;SDS011;62796;42.654;23.316;2024-01-25T03:42:29;1.38;;;1.02;;
29196;SDS011;62796;42.654;23.316;2024-01-25T03:44:55;1.50;;;1.15;;
29196;SDS011;62796;42.654;23.316;2024-01-25T03:47:20;1.88;;;1.05;;
29196;SDS011;62796;42.654;23.316;2024-01-25T03:49:46;1.95;;;1.10;;
29196;SDS011;62796;42.654;23.316;2024-01-25T03:52:11;1.35;;;1.08;;
29196;SDS011;62796;42.654;23.316;2024-01-25T03:54:36;3.55;;;1.15;;
29196;SDS011;62796;42.654;23.316;2024-01-25T03:57:02;2.65;;;1.25;;
29196;SDS011;62796;42.654;23.316;2024-01-25T03:59:28;3.47;;;1.30;;
29196;SDS011;62796;42.654;23.316;2024-01-25T04:01:53;2.10;;;1.23;;
29196;SDS011;62796;42.654;23.316;2024-01-25T04:04:19;2.22;;;1.10;;
29196;SDS011;62796;42.654;23.316;2024-01-25T04:06:44;2.40;;;1.20;;
29196;SDS011;62796;42.654;23.316;2024-01-25T04:09:13;1.65;;;0.90;;
29196;SDS011;62796;42.654;23.316;2024-01-25T04:11:40;2.83;;;1.00;;
29196;SDS011;62796;42.654;23.316;2024-01-25T04:14:05;2.97;;;1.30;;
29196;SDS011;62796;42.654;23.316;2024-01-25T04:16:31;3.45;;;1.20;;
29196;SDS011;62796;42.654;23.316;2024-01-25T04:19:00;2.67;;;0.90;;
29196;SDS011;62796;42.654;23.316;2024-01-25T04:21:26;0.80;;;0.73;;
29196;SDS011;62796;42.654;23.316;2024-01-25T04:23:52;1.92;;;0.90;;
29196;SDS011;62796;42.654;23.316;2024-01-25T04:26:18;1.77;;;1.10;;
29196;SDS011;62796;42.654;23.316;2024-01-25T04:28:43;3.05;;;1.25;;
29196;SDS011;62796;42.654;23.316;2024-01-25T04:31:09;3.53;;;1.80;;
29196;SDS011;62796;42.654;23.316;2024-01-25T04:33:34;4.28;;;1.60;;
29196;SDS011;62796;42.654;23.316;2024-01-25T04:35:59;4.03;;;2.08;;
29196;SDS011;62796;42.654;23.316;2024-01-25T04:38:25;2.47;;;1.55;;
29196;SDS011;62796;42.654;23.316;2024-01-25T04:40:50;3.28;;;1.90;;
29196;SDS011;62796;42.654;23.316;2024-01-25T04:43:15;2.53;;;1.25;;
29196;SDS011;62796;42.654;23.316;2024-01-25T04:45:41;2.67;;;1.50;;
29196;SDS011;62796;42.654;23.316;2024-01-25T04:48:06;4.40;;;1.45;;
29196;SDS011;62796;42.654;23.316;2024-01-25T04:50:32;2.05;;;1.23;;
29196;SDS011;62796;42.654;23.316;2024-01-25T04:52:57;6.47;;;2.08;;
29196;SDS011;62796;42.654;23.316;2024-01-25T04:55:23;6.20;;;2.90;;
29196;SDS011;62796;42.654;23.316;2024-01-25T04:57:48;6.75;;;3.17;;
29196;SDS011;62796;42.654;23.316;2024-01-25T05:00:18;4.53;;;2.10;;
29196;SDS011;62796;42.654;23.316;2024-01-25T05:02:43;4.68;;;2.00;;
29196;SDS011;62796;42.654;23.316;2024-01-25T05:05:09;4.15;;;2.72;;
29196;SDS011;62796;42.654;23.316;2024-01-25T05:07:34;3.70;;;1.15;;
29196;SDS011;62796;42.654;23.316;2024-01-25T05:10:00;4.72;;;1.42;;
29196;SDS011;62796;42.654;23.316;2024-01-25T05:12:25;2.50;;;1.45;;
29196;SDS011;62796;42.654;23.316;2024-01-25T05:14:50;3.55;;;1.88;;
29196;SDS011;62796;42.654;23.316;2024-01-25T05:17:16;4.97;;;1.50;;
29196;SDS011;62796;42.654;23.316;2024-01-25T05:19:41;2.60;;;1.33;;
29196;SDS011;62796;42.654;23.316;2024-01-25T05:22:07;5.05;;;1.60;;
29196;SDS011;62796;42.654;23.316;2024-01-25T05:24:33;4.07;;;1.63;;
29196;SDS011;62796;42.654;23.316;2024-01-25T05:26:59;2.25;;;1.45;;
29196;SDS011;62796;42.654;23.316;2024-01-25T05:29:24;4.70;;;1.42;;
29196;SDS011;62796;42.654;23.316;2024-01-25T05:31:50;4.40;;;1.60;;
29196;SDS011;62796;42.654;23.316;2024-01-25T05:34:15;4.05;;;1.95;;
29196;SDS011;62796;42.654;23.316;2024-01-25T05:36:41;3.90;;;1.42;;
29196;SDS011;62796;42.654;23.316;2024-01-25T05:39:06;5.30;;;1.73;;
29196;SDS011;62796;42.654;23.316;2024-01-25T05:41:32;5.13;;;1.80;;
29196;SDS011;62796;42.654;23.316;2024-01-25T05:43:58;3.55;;;1.73;;
29196;SDS011;62796;42.654;23.316;2024-01-25T05:46:25;6.82;;;1.98;;
29196;SDS011;62796;42.654;23.316;2024-01-25T05:48:50;5.55;;;1.73;;
29196;SDS011;62796;42.654;23.316;2024-01-25T05:51:16;2.58;;;1.40;;
29196;SDS011;62796;42.654;23.316;2024-01-25T05:53:41;4.30;;;1.70;;
29196;SDS011;62796;42.654;23.316;2024-01-25T05:56:06;7.07;;;1.83;;
29196;SDS011;62796;42.654;23.316;2024-01-25T05:58:32;4.57;;;1.80;;
29196;SDS011;62796;42.654;23.316;2024-01-25T06:00:57;4.07;;;1.67;;
29196;SDS011;62796;42.654;23.316;2024-01-25T06:03:23;7.75;;;2.38;;
29196;SDS011;62796;42.654;23.316;2024-01-25T06:05:48;6.45;;;2.65;;
29196;SDS011;62796;42.654;23.316;2024-01-25T06:08:13;7.22;;;2.10;;
29196;SDS011;62796;42.654;23.316;2024-01-25T06:10:39;5.25;;;3.08;;
29196;SDS011;62796;42.654;23.316;2024-01-25T06:13:04;8.93;;;3.33;;
29196;SDS011;62796;42.654;23.316;2024-01-25T06:15:30;3.67;;;1.92;;
29196;SDS011;62796;42.654;23.316;2024-01-25T06:17:56;9.60;;;3.10;;
29196;SDS011;62796;42.654;23.316;2024-01-25T06:20:22;9.27;;;3.83;;
29196;SDS011;62796;42.654;23.316;2024-01-25T06:22:47;7.85;;;3.05;;
29196;SDS011;62796;42.654;23.316;2024-01-25T06:25:13;8.48;;;3.17;;
29196;SDS011;62796;42.654;23.316;2024-01-25T06:27:39;13.32;;;3.22;;
29196;SDS011;62796;42.654;23.316;2024-01-25T06:30:04;7.82;;;3.15;;
29196;SDS011;62796;42.654;23.316;2024-01-25T06:32:30;6.35;;;2.72;;
29196;SDS011;62796;42.654;23.316;2024-01-25T06:34:56;8.13;;;3.17;;
29196;SDS011;62796;42.654;23.316;2024-01-25T06:37:21;7.47;;;2.60;;
29196;SDS011;62796;42.654;23.316;2024-01-25T06:39:47;8.20;;;3.60;;
29196;SDS011;62796;42.654;23.316;2024-01-25T06:42:12;9.48;;;3.30;;
29196;SDS011;62796;42.654;23.316;2024-01-25T06:44:38;7.15;;;3.00;;
29196;SDS011;62796;42.654;23.316;2024-01-25T06:47:04;6.93;;;3.08;;
29196;SDS011;62796;42.654;23.316;2024-01-25T06:49:29;8.80;;;4.40;;
29196;SDS011;62796;42.654;23.316;2024-01-25T06:51:54;12.43;;;4.70;;
29196;SDS011;62796;42.654;23.316;2024-01-25T06:54:20;11.85;;;4.40;;
29196;SDS011;62796;42.654;23.316;2024-01-25T06:56:45;8.30;;;3.80;;
29196;SDS011;62796;42.654;23.316;2024-01-25T06:59:11;8.30;;;2.80;;
29196;SDS011;62796;42.654;23.316;2024-01-25T07:01:36;9.07;;;3.30;;
29196;SDS011;62796;42.654;23.316;2024-01-25T07:04:02;8.25;;;2.97;;
29196;SDS011;62796;42.654;23.316;2024-01-25T07:06:28;7.47;;;3.60;;
29196;SDS011;62796;42.654;23.316;2024-01-25T07:08:54;8.73;;;3.50;;
29196;SDS011;62796;42.654;23.316;2024-01-25T07:11:20;11.27;;;4.20;;
29196;SDS011;62796;42.654;23.316;2024-01-25T07:13:46;13.93;;;4.50;;
29196;SDS011;62796;42.654;23.316;2024-01-25T07:16:11;13.98;;;4.93;;
29196;SDS011;62796;42.654;23.316;2024-01-25T07:18:36;8.48;;;3.15;;
29196;SDS011;62796;42.654;23.316;2024-01-25T07:21:02;7.20;;;3.13;;
29196;SDS011;62796;42.654;23.316;2024-01-25T07:23:29;12.68;;;3.25;;
29196;SDS011;62796;42.654;23.316;2024-01-25T07:25:54;8.60;;;3.28;;
29196;SDS011;62796;42.654;23.316;2024-01-25T07:28:20;9.25;;;3.33;;
29196;SDS011;62796;42.654;23.316;2024-01-25T07:30:48;9.98;;;2.83;;
29196;SDS011;62796;42.654;23.316;2024-01-25T07:33:15;9.05;;;3.42;;
29196;SDS011;62796;42.654;23.316;2024-01-25T07:35:41;8.05;;;3.30;;
29196;SDS011;62796;42.654;23.316;2024-01-25T07:38:10;10.18;;;2.85;;
29196;SDS011;62796;42.654;23.316;2024-01-25T07:40:41;9.00;;;3.67;;
29196;SDS011;62796;42.654;23.316;2024-01-25T07:43:07;12.25;;;4.40;;
29196;SDS011;62796;42.654;23.316;2024-01-25T07:45:32;13.43;;;4.45;;
29196;SDS011;62796;42.654;23.316;2024-01-25T07:47:58;8.00;;;3.60;;
29196;SDS011;62796;42.654;23.316;2024-01-25T07:50:24;8.32;;;3.20;;
29196;SDS011;62796;42.654;23.316;2024-01-25T07:52:49;10.63;;;3.95;;
29196;SDS011;62796;42.654;23.316;2024-01-25T07:55:17;9.48;;;4.07;;
29196;SDS011;62796;42.654;23.316;2024-01-25T07:57:42;12.88;;;4.07;;
29196;SDS011;62796;42.654;23.316;2024-01-25T08:00:08;6.60;;;3.30;;
29196;SDS011;62796;42.654;23.316;2024-01-25T08:02:34;6.47;;;3.22;;
29196;SDS011;62796;42.654;23.316;2024-01-25T08:05:00;8.52;;;3.70;;
29196;SDS011;62796;42.654;23.316;2024-01-25T08:07:26;9.30;;;3.13;;
29196;SDS011;62796;42.654;23.316;2024-01-25T08:09:52;11.98;;;3.15;;
29196;SDS011;62796;42.654;23.316;2024-01-25T08:12:18;8.75;;;3.88;;
29196;SDS011;62796;42.654;23.316;2024-01-25T08:14:43;11.90;;;3.90;;
29196;SDS011;62796;42.654;23.316;2024-01-25T08:17:09;12.25;;;4.05;;
29196;SDS011;62796;42.654;23.316;2024-01-25T08:19:35;10.73;;;3.38;;
29196;SDS011;62796;42.654;23.316;2024-01-25T08:22:00;12.80;;;3.50;;
29196;SDS011;62796;42.654;23.316;2024-01-25T08:24:26;10.73;;;3.53;;
29196;SDS011;62796;42.654;23.316;2024-01-25T08:26:51;8.32;;;3.13;;
29196;SDS011;62796;42.654;23.316;2024-01-25T08:29:16;13.63;;;3.50;;
29196;SDS011;62796;42.654;23.316;2024-01-25T08:31:42;9.13;;;3.22;;
29196;SDS011;62796;42.654;23.316;2024-01-25T08:34:07;10.15;;;3.40;;
29196;SDS011;62796;42.654;23.316;2024-01-25T08:36:32;10.05;;;3.10;;
29196;SDS011;62796;42.654;23.316;2024-01-25T08:38:58;11.50;;;3.45;;
29196;SDS011;62796;42.654;23.316;2024-01-25T08:41:23;12.00;;;3.60;;
29196;SDS011;62796;42.654;23.316;2024-01-25T08:43:49;9.20;;;3.78;;
29196;SDS011;62796;42.654;23.316;2024-01-25T08:46:14;11.00;;;3.85;;
29196;SDS011;62796;42.654;23.316;2024-01-25T08:48:43;12.35;;;4.63;;
29196;SDS011;62796;42.654;23.316;2024-01-25T08:51:08;12.60;;;4.32;;
29196;SDS011;62796;42.654;23.316;2024-01-25T08:53:34;8.90;;;3.53;;
29196;SDS011;62796;42.654;23.316;2024-01-25T08:55:59;9.18;;;3.30;;
29196;SDS011;62796;42.654;23.316;2024-01-25T08:58:25;11.18;;;3.22;;
29196;SDS011;62796;42.654;23.316;2024-01-25T09:00:50;14.00;;;3.53;;
29196;SDS011;62796;42.654;23.316;2024-01-25T09:03:15;10.07;;;3.35;;
29196;SDS011;62796;42.654;23.316;2024-01-25T09:05:41;7.20;;;3.50;;
29196;SDS011;62796;42.654;23.316;2024-01-25T09:08:10;11.02;;;3.35;;
29196;SDS011;62796;42.654;23.316;2024-01-25T09:10:37;10.18;;;3.65;;
29196;SDS011;62796;42.654;23.316;2024-01-25T09:13:02;10.35;;;3.63;;
29196;SDS011;62796;42.654;23.316;2024-01-25T09:15:27;13.07;;;4.18;;
29196;SDS011;62796;42.654;23.316;2024-01-25T09:17:53;14.93;;;4.55;;
29196;SDS011;62796;42.654;23.316;2024-01-25T09:20:18;15.52;;;4.70;;
29196;SDS011;62796;42.654;23.316;2024-01-25T09:22:44;58.78;;;7.60;;
29196;SDS011;62796;42.654;23.316;2024-01-25T09:25:09;38.97;;;6.00;;
29196;SDS011;62796;42.654;23.316;2024-01-25T09:27:34;11.02;;;3.97;;
29196;SDS011;62796;42.654;23.316;2024-01-25T09:30:00;10.38;;;3.80;;
29196;SDS011;62796;42.654;23.316;2024-01-25T09:32:25;13.60;;;3.53;;
29196;SDS011;62796;42.654;23.316;2024-01-25T09:34:51;8.93;;;3.47;;
29196;SDS011;62796;42.654;23.316;2024-01-25T09:37:16;8.77;;;3.65;;
29196;SDS011;62796;42.654;23.316;2024-01-25T09:39:42;11.77;;;3.53;;
29196;SDS011;62796;42.654;23.316;2024-01-25T09:42:08;8.27;;;3.55;;
29196;SDS011;62796;42.654;23.316;2024-01-25T09:44:35;9.90;;;3.28;;
29196;SDS011;62796;42.654;23.316;2024-01-25T09:47:02;14.38;;;4.40;;
29196;SDS011;62796;42.654;23.316;2024-01-25T09:49:30;11.50;;;4.35;;
29196;SDS011;62796;42.654;23.316;2024-01-25T09:51:56;9.52;;;4.30;;
29196;SDS011;62796;42.654;23.316;2024-01-25T09:54:22;10.25;;;4.10;;
29196;SDS011;62796;42.654;23.316;2024-01-25T09:56:48;10.55;;;4.13;;
29196;SDS011;62796;42.654;23.316;2024-01-25T09:59:18;11.88;;;3.95;;
29196;SDS011;62796;42.654;23.316;2024-01-25T10:01:44;14.57;;;5.30;;
29196;SDS011;62796;42.654;23.316;2024-01-25T10:04:11;16.27;;;3.60;;
29196;SDS011;62796;42.654;23.316;2024-01-25T10:06:37;9.73;;;3.40;;
29196;SDS011;62796;42.654;23.316;2024-01-25T10:09:03;13.77;;;3.67;;
29196;SDS011;62796;42.654;23.316;2024-01-25T10:11:29;13.90;;;4.50;;
29196;SDS011;62796;42.654;23.316;2024-01-25T10:14:00;11.80;;;4.53;;
29196;SDS011;62796;42.654;23.316;2024-01-25T10:16:26;12.35;;;5.38;;
29196;SDS011;62796;42.654;23.316;2024-01-25T10:18:51;15.45;;;4.38;;
29196;SDS011;62796;42.654;23.316;2024-01-25T10:21:17;10.35;;;3.90;;
29196;SDS011;62796;42.654;23.316;2024-01-25T10:23:46;18.77;;;4.75;;
29196;SDS011;62796;42.654;23.316;2024-01-25T10:26:16;11.10;;;4.13;;
29196;SDS011;62796;42.654;23.316;2024-01-25T10:28:42;11.88;;;3.90;;
29196;SDS011;62796;42.654;23.316;2024-01-25T10:31:07;9.77;;;4.00;;
29196;SDS011;62796;42.654;23.316;2024-01-25T10:33:34;9.32;;;3.65;;
29196;SDS011;62796;42.654;23.316;2024-01-25T10:36:00;12.75;;;4.45;;
29196;SDS011;62796;42.654;23.316;2024-01-25T10:38:33;10.73;;;4.88;;
29196;SDS011;62796;42.654;23.316;2024-01-25T10:41:03;11.38;;;4.80;;
29196;SDS011;62796;42.654;23.316;2024-01-25T10:43:30;10.77;;;5.03;;
29196;SDS011;62796;42.654;23.316;2024-01-25T10:45:56;13.82;;;5.57;;
29196;SDS011;62796;42.654;23.316;2024-01-25T10:48:24;10.15;;;5.20;;
29196;SDS011;62796;42.654;23.316;2024-01-25T10:50:51;16.75;;;5.88;;
29196;SDS011;62796;42.654;23.316;2024-01-25T10:53:16;20.42;;;6.10;;
29196;SDS011;62796;42.654;23.316;2024-01-25T10:55:43;12.60;;;5.10;;
29196;SDS011;62796;42.654;23.316;2024-01-25T10:58:09;10.27;;;4.13;;
29196;SDS011;62796;42.654;23.316;2024-01-25T11:00:38;11.15;;;4.63;;
29196;SDS011;62796;42.654;23.316;2024-01-25T11:03:04;15.85;;;5.43;;
29196;SDS011;62796;42.654;23.316;2024-01-25T11:05:31;10.13;;;4.38;;
29196;SDS011;62796;42.654;23.316;2024-01-25T11:07:57;10.02;;;3.47;;
29196;SDS011;62796;42.654;23.316;2024-01-25T11:10:26;16.13;;;4.13;;
29196;SDS011;62796;42.654;23.316;2024-01-25T11:12:59;20.15;;;4.40;;
29196;SDS011;62796;42.654;23.316;2024-01-25T11:15:32;15.90;;;4.72;;
29196;SDS011;62796;42.654;23.316;2024-01-25T11:18:00;9.23;;;4.00;;
29196;SDS011;62796;42.654;23.316;2024-01-25T11:20:27;10.57;;;3.53;;
29196;SDS011;62796;42.654;23.316;2024-01-25T11:25:29;13.70;;;4.65;;
29196;SDS011;62796;42.654;23.316;2024-01-25T11:27:55;11.55;;;3.70;;
29196;SDS011;62796;42.654;23.316;2024-01-25T11:30:21;11.23;;;3.13;;
29196;SDS011;62796;42.654;23.316;2024-01-25T11:32:47;21.48;;;4.70;;
29196;SDS011;62796;42.654;23.316;2024-01-25T11:35:13;12.60;;;4.18;;
29196;SDS011;62796;42.654;23.316;2024-01-25T11:37:42;13.02;;;4.35;;
29196;SDS011;62796;42.654;23.316;2024-01-25T11:40:09;14.18;;;4.00;;
29196;SDS011;62796;42.654;23.316;2024-01-25T11:42:36;14.68;;;4.35;;
29196;SDS011;62796;42.654;23.316;2024-01-25T11:45:01;13.13;;;4.75;;
29196;SDS011;62796;42.654;23.316;2024-01-25T11:47:27;14.77;;;5.20;;
29196;SDS011;62796;42.654;23.316;2024-01-25T11:49:53;16.35;;;5.22;;
29196;SDS011;62796;42.654;23.316;2024-01-25T11:52:19;11.25;;;4.20;;
29196;SDS011;62796;42.654;23.316;2024-01-25T11:54:44;11.00;;;5.20;;
29196;SDS011;62796;42.654;23.316;2024-01-25T11:57:10;13.95;;;5.18;;
29196;SDS011;62796;42.654;23.316;2024-01-25T11:59:35;11.25;;;4.75;;
29196;SDS011;62796;42.654;23.316;2024-01-25T12:02:01;15.00;;;4.50;;
29196;SDS011;62796;42.654;23.316;2024-01-25T12:04:27;13.75;;;4.82;;
29196;SDS011;62796;42.654;23.316;2024-01-25T12:06:53;14.32;;;4.68;;
29196;SDS011;62796;42.654;23.316;2024-01-25T12:09:18;14.32;;;5.03;;
29196;SDS011;62796;42.654;23.316;2024-01-25T12:11:43;13.65;;;4.30;;
29196;SDS011;62796;42.654;23.316;2024-01-25T12:14:09;18.30;;;4.45;;
29196;SDS011;62796;42.654;23.316;2024-01-25T12:16:35;13.30;;;4.22;;
29196;SDS011;62796;42.654;23.316;2024-01-25T12:19:00;11.85;;;4.60;;
29196;SDS011;62796;42.654;23.316;2024-01-25T12:21:26;9.60;;;3.95;;
29196;SDS011;62796;42.654;23.316;2024-01-25T12:23:51;16.60;;;3.97;;
29196;SDS011;62796;42.654;23.316;2024-01-25T12:26:16;12.35;;;3.83;;
29196;SDS011;62796;42.654;23.316;2024-01-25T12:28:42;15.18;;;4.30;;
29196;SDS011;62796;42.654;23.316;2024-01-25T12:31:08;18.40;;;5.85;;
29196;SDS011;62796;42.654;23.316;2024-01-25T12:33:34;16.02;;;5.82;;
29196;SDS011;62796;42.654;23.316;2024-01-25T12:36:00;11.27;;;4.80;;
29196;SDS011;62796;42.654;23.316;2024-01-25T12:38:27;15.73;;;5.90;;
29196;SDS011;62796;42.654;23.316;2024-01-25T12:40:54;18.75;;;6.18;;
29196;SDS011;62796;42.654;23.316;2024-01-25T12:43:20;14.80;;;6.28;;
29196;SDS011;62796;42.654;23.316;2024-01-25T12:45:48;14.00;;;6.10;;
29196;SDS011;62796;42.654;23.316;2024-01-25T12:48:17;10.48;;;3.90;;
29196;SDS011;62796;42.654;23.316;2024-01-25T12:50:43;9.20;;;3.38;;
29196;SDS011;62796;42.654;23.316;2024-01-25T12:53:10;13.20;;;4.03;;
29196;SDS011;62796;42.654;23.316;2024-01-25T12:55:36;11.13;;;4.38;;
29196;SDS011;62796;42.654;23.316;2024-01-25T12:58:02;13.98;;;3.95;;
29196;SDS011;62796;42.654;23.316;2024-01-25T13:00:28;6.72;;;3.40;;
29196;SDS011;62796;42.654;23.316;2024-01-25T13:02:53;13.00;;;4.55;;
29196;SDS011;62796;42.654;23.316;2024-01-25T13:05:20;9.10;;;3.30;;
29196;SDS011;62796;42.654;23.316;2024-01-25T13:07:45;10.77;;;3.97;;
29196;SDS011;62796;42.654;23.316;2024-01-25T13:10:10;12.85;;;3.70;;
29196;SDS011;62796;42.654;23.316;2024-01-25T13:12:39;13.07;;;3.92;;
29196;SDS011;62796;42.654;23.316;2024-01-25T13:15:05;12.13;;;4.22;;
29196;SDS011;62796;42.654;23.316;2024-01-25T13:17:31;16.00;;;3.78;;
29196;SDS011;62796;42.654;23.316;2024-01-25T13:19:59;9.13;;;3.33;;
29196;SDS011;62796;42.654;23.316;2024-01-25T13:22:25;9.30;;;3.40;;
29196;SDS011;62796;42.654;23.316;2024-01-25T13:24:50;20.38;;;4.53;;
29196;SDS011;62796;42.654;23.316;2024-01-25T13:27:16;17.15;;;4.35;;
29196;SDS011;62796;42.654;23.316;2024-01-25T13:29:42;12.43;;;5.15;;
29196;SDS011;62796;42.654;23.316;2024-01-25T13:32:07;15.52;;;4.25;;
29196;SDS011;62796;42.654;23.316;2024-01-25T13:34:33;15.48;;;3.65;;
29196;SDS011;62796;42.654;23.316;2024-01-25T13:36:58;46.83;;;6.88;;
29196;SDS011;62796;42.654;23.316;2024-01-25T13:39:24;35.67;;;5.57;;
29196;SDS011;62796;42.654;23.316;2024-01-25T13:41:50;10.23;;;3.92;;
29196;SDS011;62796;42.654;23.316;2024-01-25T13:44:16;15.80;;;4.15;;
29196;SDS011;62796;42.654;23.316;2024-01-25T13:46:41;18.52;;;4.43;;
29196;SDS011;62796;42.654;23.316;2024-01-25T13:49:06;9.60;;;3.55;;
29196;SDS011;62796;42.654;23.316;2024-01-25T13:51:32;11.38;;;4.07;;
29196;SDS011;62796;42.654;23.316;2024-01-25T13:53:57;12.43;;;4.22;;
29196;SDS011;62796;42.654;23.316;2024-01-25T13:56:22;15.55;;;4.25;;
29196;SDS011;62796;42.654;23.316;2024-01-25T13:58:48;11.43;;;3.50;;
29196;SDS011;62796;42.654;23.316;2024-01-25T14:01:13;11.80;;;4.78;;
29196;SDS011;62796;42.654;23.316;2024-01-25T14:03:39;13.38;;;4.30;;
29196;SDS011;62796;42.654;23.316;2024-01-25T14:06:04;12.35;;;4.80;;
29196;SDS011;62796;42.654;23.316;2024-01-25T14:08:30;16.08;;;4.95;;
29196;SDS011;62796;42.654;23.316;2024-01-25T14:10:57;12.63;;;4.68;;
29196;SDS011;62796;42.654;23.316;2024-01-25T14:13:22;18.50;;;5.45;;
29196;SDS011;62796;42.654;23.316;2024-01-25T14:15:48;13.20;;;6.22;;
29196;SDS011;62796;42.654;23.316;2024-01-25T14:18:13;13.13;;;4.93;;
29196;SDS011;62796;42.654;23.316;2024-01-25T14:20:39;15.68;;;4.82;;